Glaslyn, Canada
Current Conditions -  °F | °C
As of 7:00 AM on Thursday 18 Dec 2014 (Local Time) from CYQW Reporting Station
Overcast Overcast  
Wind Chill: 13°   Ceiling: 700
Heat Index: 19°   Visibility: 9mi
Dew Point: 19°   Wind: 5mph
Humidity: 100%   Direction: 150°SSE
Pressure: 29.88"   Gusts: NA
Location:  53.35°N, 108.35°W
Report Text: CYQW 181300Z AUTO 15004KT 9SM OVC007 M07/M07 A2988 RMK SLP156
Loading
Personal Weather Stations






























Interactive Weather Map New forecast layout! Learn more

10-Day Weather Forecast

Advertisements
Track Severe Weather on mobile